createdAt,value
2023-02-21T00:02:02.425Z,14.38
2023-02-21T00:04:23.539Z,16.30
2023-02-21T00:06:44.594Z,17.92
2023-02-21T00:09:06.284Z,13.80
2023-02-21T00:11:27.470Z,17.33
2023-02-21T00:13:48.638Z,15.30
2023-02-21T00:16:09.620Z,18.33
2023-02-21T00:18:30.894Z,14.20
2023-02-21T00:20:52.107Z,15.70
2023-02-21T00:23:13.281Z,18.08
2023-02-21T00:25:34.506Z,16.40
2023-02-21T00:27:55.343Z,16.95
2023-02-21T00:30:16.583Z,16.35
2023-02-21T00:32:37.738Z,16.37
2023-02-21T00:34:58.849Z,17.02
2023-02-21T00:37:20.001Z,19.15
2023-02-21T00:39:41.100Z,11.82
2023-02-21T00:42:02.173Z,19.25
2023-02-21T00:44:23.108Z,20.77
2023-02-21T00:46:44.202Z,16.05
2023-02-21T00:49:05.240Z,16.98
2023-02-21T00:51:26.518Z,14.55
2023-02-21T00:53:47.550Z,19.25
2023-02-21T00:56:08.571Z,21.00
2023-02-21T00:58:29.720Z,18.27
2023-02-21T01:00:50.468Z,14.95
2023-02-21T01:03:11.533Z,19.42
2023-02-21T01:05:32.655Z,16.95
2023-02-21T01:07:53.688Z,17.53
2023-02-21T01:10:14.726Z,21.05
2023-02-21T01:12:35.953Z,21.77
2023-02-21T01:14:57.040Z,19.95
2023-02-21T01:17:17.988Z,14.00
2023-02-21T01:19:39.117Z,15.87
2023-02-21T01:22:00.075Z,18.58
2023-02-21T01:24:21.432Z,17.25
2023-02-21T01:26:42.753Z,14.40
2023-02-21T01:29:03.628Z,16.42
2023-02-21T01:31:24.681Z,17.67
2023-02-21T01:33:45.877Z,26.13
2023-02-21T01:36:07.049Z,18.63
2023-02-21T01:38:28.291Z,22.20
2023-02-21T01:40:49.593Z,17.73
2023-02-21T01:43:10.712Z,19.93
2023-02-21T01:45:40.434Z,18.83
2023-02-21T01:48:01.602Z,17.13
2023-02-21T01:50:30.651Z,17.85
2023-02-21T01:52:51.752Z,17.67
2023-02-21T01:55:14.259Z,17.90
2023-02-21T01:57:35.804Z,13.55
2023-02-21T01:59:57.100Z,13.82
2023-02-21T02:02:23.983Z,14.15
2023-02-21T02:04:45.136Z,13.85
2023-02-21T02:07:06.613Z,14.77
2023-02-21T02:09:40.492Z,12.63
2023-02-21T02:12:25.336Z,13.48
2023-02-21T02:14:46.201Z,12.40
2023-02-21T02:17:01.762Z,10.93
2023-02-21T02:19:46.249Z,13.83
2023-02-21T02:22:10.170Z,16.38
2023-02-21T02:24:41.431Z,18.52
2023-02-21T02:27:02.591Z,19.45
2023-02-21T02:29:18.397Z,22.63
2023-02-21T02:31:44.169Z,19.00
2023-02-21T02:33:58.620Z,17.00
2023-02-21T02:36:29.156Z,16.63
2023-02-21T02:39:10.334Z,14.50
2023-02-21T02:41:40.703Z,21.00
2023-02-21T02:43:52.764Z,14.47
2023-02-21T02:46:13.145Z,16.65
2023-02-21T02:48:21.128Z,18.50
2023-02-21T02:50:24.360Z,19.30
2023-02-21T02:52:26.747Z,17.90
2023-02-21T02:54:29.110Z,23.97
2023-02-21T02:56:33.715Z,19.17
2023-02-21T02:58:56.737Z,19.75
2023-02-21T03:01:22.930Z,20.85
2023-02-21T03:03:46.453Z,18.45
2023-02-21T03:06:17.616Z,17.47
2023-02-21T03:08:37.154Z,16.33
2023-02-21T03:10:57.329Z,14.43
2023-02-21T03:13:11.737Z,14.88
2023-02-21T03:15:27.158Z,14.50
2023-02-21T03:17:33.092Z,13.77
2023-02-21T03:19:39.570Z,14.63
2023-02-21T03:21:45.674Z,13.88
2023-02-21T03:23:50.880Z,16.80
2023-02-21T03:25:55.215Z,10.85
2023-02-21T03:27:57.570Z,14.43
2023-02-21T03:30:04.554Z,7.88
2023-02-21T03:32:11.657Z,11.48
2023-02-21T03:34:14.201Z,8.75
2023-02-21T03:36:16.859Z,12.75
2023-02-21T03:38:19.255Z,11.03
2023-02-21T03:40:25.170Z,9.57
2023-02-21T03:42:27.571Z,8.90
2023-02-21T03:44:30.138Z,12.05
2023-02-21T03:46:32.822Z,9.70
2023-02-21T03:48:35.221Z,8.03
2023-02-21T03:50:37.704Z,11.45
2023-02-21T03:52:40.207Z,12.23
2023-02-21T03:54:43.155Z,8.98
2023-02-21T03:56:45.703Z,11.65
2023-02-21T03:58:48.111Z,8.70
2023-02-21T04:00:51.642Z,8.32
2023-02-21T04:02:54.029Z,8.52
2023-02-21T04:04:56.540Z,10.18
2023-02-21T04:06:58.956Z,11.98
2023-02-21T04:09:01.398Z,8.43
2023-02-21T04:11:03.893Z,10.60
2023-02-21T04:13:07.447Z,12.80
2023-02-21T04:15:10.917Z,11.48
2023-02-21T04:17:13.581Z,14.32
2023-02-21T04:19:16.046Z,12.63
2023-02-21T04:21:19.162Z,15.95
2023-02-21T04:23:22.335Z,18.52
2023-02-21T04:25:24.732Z,19.08
2023-02-21T04:27:27.431Z,21.92
2023-02-21T04:29:29.824Z,20.67
2023-02-21T04:31:32.643Z,24.98
2023-02-21T04:33:35.097Z,24.35
2023-02-21T04:35:37.472Z,18.55
2023-02-21T04:37:39.858Z,22.15
2023-02-21T04:39:42.329Z,21.30
2023-02-21T04:41:44.668Z,19.25
2023-02-21T04:43:47.257Z,23.80
2023-02-21T04:45:49.790Z,27.70
2023-02-21T04:47:52.201Z,30.40
2023-02-21T04:49:54.564Z,24.33
2023-02-21T04:51:57.007Z,29.85
2023-02-21T04:53:59.404Z,25.27
2023-02-21T04:56:01.798Z,24.73
2023-02-21T04:58:04.276Z,22.95
2023-02-21T05:00:08.201Z,21.53
2023-02-21T05:02:10.895Z,23.75
2023-02-21T05:04:13.322Z,23.15
2023-02-21T05:06:19.928Z,20.73
2023-02-21T05:08:26.807Z,19.75
2023-02-21T05:10:44.623Z,22.27
2023-02-21T05:12:47.474Z,14.35
2023-02-21T05:14:49.873Z,23.48
2023-02-21T05:16:52.287Z,19.27
2023-02-21T05:18:54.859Z,20.88
2023-02-21T05:20:57.512Z,26.23
2023-02-21T05:23:08.241Z,24.35
2023-02-21T05:25:23.495Z,22.23
2023-02-21T05:27:25.866Z,18.55
2023-02-21T05:29:28.342Z,15.73
2023-02-21T05:31:31.273Z,16.50
2023-02-21T05:33:33.736Z,14.93
2023-02-21T05:35:36.354Z,13.93
2023-02-21T05:37:38.796Z,15.98
2023-02-21T05:39:41.207Z,15.10
2023-02-21T05:41:50.851Z,16.87
2023-02-21T05:43:53.815Z,14.32
2023-02-21T05:45:56.234Z,13.82
2023-02-21T05:48:00.765Z,16.13
2023-02-21T05:50:04.540Z,18.60
2023-02-21T05:52:07.658Z,14.83
2023-02-21T05:54:15.237Z,17.95
2023-02-21T05:56:18.740Z,18.20
2023-02-21T05:58:21.089Z,21.02
2023-02-21T06:00:26.772Z,20.35
2023-02-21T06:02:29.223Z,30.20
2023-02-21T06:04:31.630Z,30.42
2023-02-21T06:06:36.880Z,36.97
2023-02-21T06:08:47.068Z,31.85
2023-02-21T06:10:49.514Z,32.10
2023-02-21T06:12:52.030Z,32.00
2023-02-21T06:14:54.431Z,25.77
2023-02-21T06:16:56.871Z,25.15
2023-02-21T06:18:59.281Z,19.00
2023-02-21T06:21:01.716Z,21.90
2023-02-21T06:23:04.185Z,17.67
2023-02-21T06:25:07.288Z,30.20
2023-02-21T06:27:09.648Z,24.10
2023-02-21T06:29:12.625Z,22.08
2023-02-21T06:31:15.418Z,20.63
2023-02-21T06:33:17.969Z,20.00
2023-02-21T06:35:20.357Z,20.27
2023-02-21T06:37:22.813Z,19.63
2023-02-21T06:39:25.324Z,18.70
2023-02-21T06:41:31.889Z,19.55
2023-02-21T06:43:36.651Z,23.83
2023-02-21T06:45:39.076Z,26.42
2023-02-21T06:47:41.491Z,25.15
2023-02-21T06:49:43.958Z,30.55
2023-02-21T06:51:46.421Z,35.60
2023-02-21T06:53:51.754Z,26.40
2023-02-21T06:55:54.546Z,30.35
2023-02-21T06:57:56.972Z,29.05
2023-02-21T06:59:59.358Z,32.90
2023-02-21T07:02:03.034Z,26.30
2023-02-21T07:04:05.458Z,28.93
2023-02-21T07:06:07.860Z,29.48
2023-02-21T07:08:10.382Z,31.20
2023-02-21T07:10:16.335Z,28.73
2023-02-21T07:12:18.718Z,25.77
2023-02-21T07:14:21.074Z,25.63
2023-02-21T07:16:23.532Z,26.88
2023-02-21T07:18:25.939Z,25.98
2023-02-21T07:20:28.431Z,19.52
2023-02-21T07:22:31.348Z,23.42
2023-02-21T07:24:35.740Z,27.13
2023-02-21T07:26:39.159Z,29.33
2023-02-21T07:28:41.827Z,26.83
2023-02-21T07:30:44.282Z,20.33
2023-02-21T07:32:46.923Z,19.73
2023-02-21T07:34:49.449Z,26.93
2023-02-21T07:36:51.788Z,21.95
2023-02-21T07:38:54.389Z,23.27
2023-02-21T07:41:01.859Z,23.23
2023-02-21T07:43:04.284Z,26.20
2023-02-21T07:45:06.854Z,29.87
2023-02-21T07:47:10.773Z,28.90
2023-02-21T07:49:13.337Z,29.15
2023-02-21T07:51:15.985Z,26.80
2023-02-21T07:53:18.696Z,22.92
2023-02-21T07:55:21.790Z,24.33
2023-02-21T07:57:24.178Z,23.40
2023-02-21T07:59:26.604Z,22.27
2023-02-21T08:01:29.103Z,23.85
2023-02-21T08:03:31.922Z,22.67
2023-02-21T08:05:34.327Z,18.20
2023-02-21T08:07:37.015Z,18.88
2023-02-21T08:09:39.976Z,17.83
2023-02-21T08:11:42.363Z,19.38
2023-02-21T08:13:44.751Z,20.52
2023-02-21T08:15:47.181Z,25.10
2023-02-21T08:17:50.588Z,17.60
2023-02-21T08:19:53.178Z,21.50
2023-02-21T08:21:55.579Z,17.45
2023-02-21T08:23:57.990Z,16.42
2023-02-21T08:26:00.386Z,20.87
2023-02-21T08:28:02.784Z,18.00
2023-02-21T08:30:05.380Z,23.08
2023-02-21T08:32:08.000Z,19.00
2023-02-21T08:34:10.828Z,15.55
2023-02-21T08:36:13.179Z,20.87
2023-02-21T08:38:15.779Z,18.63
2023-02-21T08:40:21.480Z,14.68
2023-02-21T08:42:23.877Z,12.48
2023-02-21T08:44:26.280Z,14.73
2023-02-21T08:46:28.718Z,14.30
2023-02-21T08:48:31.158Z,15.13
2023-02-21T08:50:33.616Z,16.48
2023-02-21T08:52:36.034Z,16.45
2023-02-21T08:54:38.402Z,13.98
2023-02-21T08:56:40.774Z,15.47
2023-02-21T08:58:43.163Z,18.08
2023-02-21T09:00:45.631Z,20.52
2023-02-21T09:02:48.888Z,16.20
2023-02-21T09:04:52.048Z,17.05
2023-02-21T09:06:55.428Z,15.07
2023-02-21T09:08:57.972Z,16.08
2023-02-21T09:11:01.288Z,16.00
2023-02-21T09:13:04.577Z,14.80
2023-02-21T09:15:08.091Z,17.33
2023-02-21T09:17:14.312Z,15.13
2023-02-21T09:19:16.753Z,16.17
2023-02-21T09:21:19.354Z,17.33
2023-02-21T09:23:22.457Z,18.48
2023-02-21T09:25:25.938Z,18.85
2023-02-21T09:27:37.428Z,25.10
2023-02-21T09:29:46.471Z,24.58
2023-02-21T09:31:49.974Z,19.98
2023-02-21T09:33:52.362Z,14.48
2023-02-21T09:35:54.876Z,15.43
2023-02-21T09:38:00.688Z,12.73
2023-02-21T09:40:05.174Z,14.93
2023-02-21T09:42:07.741Z,12.77
2023-02-21T09:44:23.435Z,14.52
2023-02-21T09:46:45.693Z,12.95
2023-02-21T09:48:48.488Z,12.37
2023-02-21T09:51:00.131Z,15.15
2023-02-21T09:53:02.744Z,13.95
2023-02-21T09:55:36.084Z,12.88
2023-02-21T09:57:38.602Z,11.25
2023-02-21T09:59:41.249Z,12.57
2023-02-21T10:01:58.738Z,12.63
2023-02-21T10:04:05.747Z,11.10
2023-02-21T10:06:40.779Z,25.65
2023-02-21T10:08:57.802Z,13.85
2023-02-21T10:11:31.465Z,10.80
2023-02-21T10:13:40.604Z,12.80
2023-02-21T10:16:06.342Z,18.23
2023-02-21T10:18:45.336Z,13.85
2023-02-21T10:20:54.994Z,9.98
2023-02-21T10:22:57.833Z,12.27
2023-02-21T10:25:01.910Z,12.75
2023-02-21T10:27:08.366Z,13.88
2023-02-21T10:29:25.572Z,17.38
2023-02-21T10:31:34.041Z,15.90
2023-02-21T10:33:39.217Z,13.50
2023-02-21T10:35:41.671Z,10.60
2023-02-21T10:37:53.917Z,9.57
2023-02-21T10:40:27.732Z,11.90
2023-02-21T10:42:39.721Z,11.35
2023-02-21T10:44:42.523Z,15.83
2023-02-21T10:46:50.044Z,12.57
2023-02-21T10:48:55.848Z,11.27
2023-02-21T10:51:04.529Z,11.25
2023-02-21T10:53:08.338Z,9.68
2023-02-21T10:55:32.222Z,12.73
2023-02-21T10:57:41.372Z,12.43
2023-02-21T10:59:44.318Z,11.15
2023-02-21T11:01:47.281Z,10.95
2023-02-21T11:03:52.354Z,13.52
2023-02-21T11:05:57.966Z,11.77
2023-02-21T11:08:01.995Z,11.50
2023-02-21T11:10:25.154Z,9.27
2023-02-21T11:12:31.177Z,11.25
2023-02-21T11:14:35.421Z,9.15
2023-02-21T11:16:37.806Z,8.20
2023-02-21T11:18:40.430Z,8.98
2023-02-21T11:20:43.271Z,7.75
2023-02-21T11:22:47.882Z,9.07
2023-02-21T11:25:03.186Z,8.95
2023-02-21T11:27:05.616Z,9.80
2023-02-21T11:29:25.924Z,9.57
2023-02-21T11:31:33.383Z,11.57
2023-02-21T11:33:42.282Z,14.43
2023-02-21T11:35:52.448Z,8.40
2023-02-21T11:38:04.158Z,7.50
2023-02-21T11:40:09.635Z,10.90
2023-02-21T11:42:28.898Z,8.95
2023-02-21T11:44:41.810Z,12.85
2023-02-21T11:46:47.936Z,11.57
2023-02-21T11:49:14.416Z,15.07
2023-02-21T11:51:42.414Z,8.98
2023-02-21T11:53:45.053Z,8.35
2023-02-21T11:55:58.185Z,12.65
2023-02-21T11:58:35.056Z,9.93
2023-02-21T12:00:47.191Z,8.00
2023-02-21T12:03:01.161Z,8.38
2023-02-21T12:05:26.028Z,7.35
2023-02-21T12:07:39.334Z,8.32
2023-02-21T12:10:21.328Z,7.82
2023-02-21T12:12:35.510Z,8.90
2023-02-21T12:14:40.864Z,7.75
2023-02-21T12:17:15.331Z,7.00
2023-02-21T12:19:43.882Z,7.93
2023-02-21T12:21:53.445Z,10.98
2023-02-21T12:23:58.841Z,7.43
2023-02-21T12:26:07.270Z,6.20
2023-02-21T12:28:13.941Z,6.90
2023-02-21T12:30:41.512Z,9.82
2023-02-21T12:32:53.718Z,8.60
2023-02-21T12:35:23.230Z,5.80
2023-02-21T12:37:25.603Z,8.20
2023-02-21T12:39:42.999Z,7.97
2023-02-21T12:42:12.904Z,6.43
2023-02-21T12:44:27.094Z,8.05
2023-02-21T12:46:51.497Z,7.07
2023-02-21T12:49:02.899Z,9.98
2023-02-21T12:51:10.199Z,11.27
2023-02-21T12:53:26.504Z,9.75
2023-02-21T12:55:34.022Z,9.10
2023-02-21T12:57:53.298Z,8.20
2023-02-21T13:00:17.863Z,6.60
2023-02-21T13:02:40.796Z,7.25
2023-02-21T13:04:49.768Z,9.15
2023-02-21T13:07:25.744Z,7.90
2023-02-21T13:09:38.544Z,7.37
2023-02-21T13:12:09.027Z,6.45
2023-02-21T13:14:18.917Z,9.82
2023-02-21T13:16:21.788Z,10.00
2023-02-21T13:18:33.297Z,8.88
2023-02-21T13:21:01.370Z,7.80
2023-02-21T13:23:41.064Z,7.10
2023-02-21T13:25:46.407Z,7.85
2023-02-21T13:28:15.689Z,6.40
2023-02-21T13:30:40.598Z,8.70
2023-02-21T13:32:52.743Z,5.47
2023-02-21T13:34:56.252Z,7.50
2023-02-21T13:37:08.731Z,9.10
2023-02-21T13:39:15.169Z,6.80
2023-02-21T13:41:17.916Z,7.10
2023-02-21T13:43:27.240Z,7.53
2023-02-21T13:45:29.905Z,7.22
2023-02-21T13:47:55.337Z,7.80
2023-02-21T13:49:58.878Z,8.02
2023-02-21T13:52:19.832Z,6.00
2023-02-21T13:54:24.653Z,7.17
2023-02-21T13:56:45.339Z,9.45
2023-02-21T13:58:51.647Z,8.50
2023-02-21T14:00:54.726Z,6.82
2023-02-21T14:03:07.070Z,8.05
2023-02-21T14:05:09.524Z,10.27
2023-02-21T14:07:12.030Z,8.40
2023-02-21T14:09:16.911Z,9.38
2023-02-21T14:11:21.474Z,7.00
2023-02-21T14:13:38.508Z,6.05
2023-02-21T14:15:46.430Z,8.27
2023-02-21T14:17:49.239Z,7.63
2023-02-21T14:19:55.335Z,6.00
2023-02-21T14:22:22.620Z,9.32
2023-02-21T14:24:30.584Z,8.55
2023-02-21T14:26:46.083Z,7.17
2023-02-21T14:29:01.548Z,7.72
2023-02-21T14:31:04.006Z,8.57
2023-02-21T14:33:25.411Z,7.35
2023-02-21T14:35:45.926Z,11.45
2023-02-21T14:38:02.454Z,7.97
2023-02-21T14:40:10.799Z,9.52
2023-02-21T14:42:39.651Z,9.18
2023-02-21T14:45:12.151Z,8.93
2023-02-21T14:47:39.255Z,13.30
2023-02-21T14:50:04.672Z,9.50
2023-02-21T14:52:51.199Z,7.90
2023-02-21T14:55:27.485Z,9.82
2023-02-21T14:57:52.575Z,8.63
2023-02-21T15:00:08.374Z,8.43
2023-02-21T15:02:19.358Z,9.10
2023-02-21T15:04:29.188Z,7.90
2023-02-21T15:06:32.864Z,5.97
2023-02-21T15:08:43.786Z,6.15
2023-02-21T15:10:48.238Z,6.50
2023-02-21T15:12:54.366Z,7.80
2023-02-21T15:14:57.102Z,8.85
2023-02-21T15:17:17.211Z,9.23
2023-02-21T15:19:34.172Z,7.18
2023-02-21T15:21:36.635Z,9.18
2023-02-21T15:23:43.624Z,8.30
2023-02-21T15:25:54.918Z,8.00
2023-02-21T15:27:59.967Z,7.07
2023-02-21T15:30:06.993Z,7.00
2023-02-21T15:32:12.689Z,8.68
2023-02-21T15:34:23.205Z,11.07
2023-02-21T15:36:25.833Z,9.60
2023-02-21T15:38:32.792Z,11.18
2023-02-21T15:40:35.463Z,8.50
2023-02-21T15:42:38.818Z,9.73
2023-02-21T15:44:42.807Z,11.93
2023-02-21T15:47:19.133Z,10.98
2023-02-21T15:49:31.262Z,10.90
2023-02-21T15:51:33.673Z,9.50
2023-02-21T15:53:36.179Z,12.77
2023-02-21T15:55:38.644Z,9.70
2023-02-21T15:57:41.120Z,10.25
2023-02-21T15:59:43.625Z,9.70
2023-02-21T16:01:46.268Z,8.30
2023-02-21T16:03:48.705Z,14.68
2023-02-21T16:05:51.545Z,19.80
2023-02-21T16:07:54.281Z,22.73
2023-02-21T16:10:02.201Z,30.10
2023-02-21T16:12:06.284Z,55.72
2023-02-21T16:14:17.731Z,53.03
2023-02-21T16:16:20.253Z,27.87
2023-02-21T16:18:22.715Z,37.75
2023-02-21T16:20:33.110Z,23.77
2023-02-21T16:22:59.618Z,20.70
2023-02-21T16:25:12.357Z,19.52
2023-02-21T16:27:16.621Z,11.93
2023-02-21T16:29:19.020Z,16.42
2023-02-21T16:31:32.009Z,19.90
2023-02-21T16:33:35.309Z,27.45
2023-02-21T16:35:37.778Z,18.17
2023-02-21T16:37:40.193Z,14.17
2023-02-21T16:39:43.149Z,14.25
2023-02-21T16:41:45.514Z,10.43
2023-02-21T16:43:48.031Z,18.25
2023-02-21T16:45:53.430Z,34.75
2023-02-21T16:48:05.123Z,24.20
2023-02-21T16:50:24.366Z,26.63
2023-02-21T16:52:28.921Z,20.20
2023-02-21T16:54:31.448Z,19.33
2023-02-21T16:56:33.941Z,22.40
2023-02-21T16:58:42.173Z,23.13
2023-02-21T17:00:44.577Z,18.45
2023-02-21T17:02:47.858Z,28.55
2023-02-21T17:04:50.364Z,31.80
2023-02-21T17:06:55.720Z,54.53
2023-02-21T17:08:58.966Z,91.30
2023-02-21T17:11:01.423Z,90.53
2023-02-21T17:13:03.908Z,201.77
2023-02-21T17:15:07.037Z,134.48
2023-02-21T17:17:10.131Z,72.93
2023-02-21T17:19:14.711Z,83.40
2023-02-21T17:21:17.581Z,65.73
2023-02-21T17:23:20.087Z,36.75
2023-02-21T17:25:23.727Z,32.97
2023-02-21T17:27:26.169Z,18.15
2023-02-21T17:29:29.478Z,19.33
2023-02-21T17:31:32.236Z,23.50
2023-02-21T17:33:35.689Z,26.73
2023-02-21T17:35:38.216Z,26.75
2023-02-21T17:37:44.794Z,26.50
2023-02-21T17:39:47.177Z,45.33
2023-02-21T17:41:51.338Z,51.22
2023-02-21T17:43:53.813Z,39.78
2023-02-21T17:45:56.267Z,39.92
2023-02-21T17:47:58.664Z,41.72
2023-02-21T17:50:02.976Z,52.63
2023-02-21T17:52:05.891Z,73.65
2023-02-21T17:54:08.295Z,67.15
2023-02-21T17:56:10.690Z,55.40
2023-02-21T17:58:13.287Z,62.83
2023-02-21T18:00:34.749Z,58.00
2023-02-21T18:02:38.057Z,58.17
2023-02-21T18:04:40.623Z,51.63
2023-02-21T18:06:43.113Z,58.17
2023-02-21T18:08:47.176Z,65.78
2023-02-21T18:10:49.620Z,57.97
2023-02-21T18:12:52.817Z,49.25
2023-02-21T18:14:55.290Z,55.03
2023-02-21T18:16:58.344Z,57.28
2023-02-21T18:19:00.833Z,57.30
2023-02-21T18:21:03.466Z,79.77
2023-02-21T18:23:09.173Z,82.10
2023-02-21T18:25:13.155Z,71.35
2023-02-21T18:27:15.885Z,74.68
2023-02-21T18:29:18.770Z,83.25
2023-02-21T18:31:21.472Z,111.80
2023-02-21T18:33:27.282Z,59.38
2023-02-21T18:35:29.719Z,59.90
2023-02-21T18:37:32.152Z,58.42
2023-02-21T18:39:34.538Z,51.88
2023-02-21T18:41:36.938Z,55.27
2023-02-21T18:43:40.767Z,42.30
2023-02-21T18:45:43.186Z,40.03
2023-02-21T18:47:45.682Z,35.25
2023-02-21T18:49:49.094Z,38.50
2023-02-21T18:51:51.994Z,39.10
2023-02-21T18:53:54.757Z,37.30
2023-02-21T18:55:57.886Z,37.97
2023-02-21T18:58:00.877Z,33.05
2023-02-21T19:00:06.616Z,37.67
2023-02-21T19:02:12.898Z,40.73
2023-02-21T19:04:15.364Z,39.70
2023-02-21T19:06:18.935Z,36.30
2023-02-21T19:08:21.717Z,33.40
2023-02-21T19:10:24.893Z,28.65
2023-02-21T19:12:27.429Z,31.80
2023-02-21T19:14:30.308Z,29.05
2023-02-21T19:16:34.114Z,39.00
2023-02-21T19:18:36.480Z,64.20
2023-02-21T19:20:40.108Z,91.60
2023-02-21T19:22:42.600Z,44.90
2023-02-21T19:24:45.060Z,64.75
2023-02-21T19:26:47.600Z,66.72
2023-02-21T19:28:50.080Z,43.78
2023-02-21T19:30:52.454Z,45.35
2023-02-21T19:32:58.926Z,44.77
2023-02-21T19:35:01.326Z,42.15
2023-02-21T19:37:03.676Z,49.75
2023-02-21T19:39:10.183Z,72.75
2023-02-21T19:41:12.577Z,55.85
2023-02-21T19:43:15.351Z,52.53
2023-02-21T19:45:19.298Z,38.25
2023-02-21T19:47:21.680Z,40.10
2023-02-21T19:49:24.269Z,42.08
2023-02-21T19:51:28.611Z,36.20
2023-02-21T19:53:30.980Z,38.07
2023-02-21T19:55:33.576Z,48.75
2023-02-21T19:57:36.050Z,45.47
2023-02-21T19:59:38.475Z,44.08
2023-02-21T20:01:41.160Z,53.97
2023-02-21T20:03:44.452Z,37.00
2023-02-21T20:05:48.640Z,40.45
2023-02-21T20:07:51.072Z,40.55
2023-02-21T20:09:53.497Z,41.00
2023-02-21T20:11:55.947Z,36.10
2023-02-21T20:13:59.735Z,34.10
2023-02-21T20:16:02.254Z,37.10
2023-02-21T20:18:05.003Z,37.65
2023-02-21T20:20:07.747Z,36.50
2023-02-21T20:22:10.360Z,35.13
2023-02-21T20:24:13.439Z,37.17
2023-02-21T20:26:16.857Z,34.60
2023-02-21T20:28:20.104Z,38.15
2023-02-21T20:30:24.903Z,57.40
2023-02-21T20:32:27.485Z,50.75
2023-02-21T20:34:30.010Z,56.10
2023-02-21T20:36:40.262Z,63.42
2023-02-21T20:38:42.682Z,70.63
2023-02-21T20:40:46.022Z,57.45
2023-02-21T20:42:48.370Z,40.03
2023-02-21T20:44:50.969Z,29.20
2023-02-21T20:46:53.827Z,28.48
2023-02-21T20:48:58.872Z,49.97
2023-02-21T20:51:01.326Z,47.38
2023-02-21T20:53:04.455Z,59.55
2023-02-21T20:55:09.474Z,74.23
2023-02-21T20:57:12.043Z,56.42
2023-02-21T20:59:21.227Z,67.75
2023-02-21T21:01:24.776Z,50.13
2023-02-21T21:03:29.623Z,49.78
2023-02-21T21:05:32.592Z,33.27
2023-02-21T21:07:34.999Z,30.70
2023-02-21T21:09:38.784Z,28.70
2023-02-21T21:11:42.468Z,31.23
2023-02-21T21:13:47.839Z,21.35
2023-02-21T21:15:50.251Z,21.93
2023-02-21T21:17:52.832Z,25.02
2023-02-21T21:19:55.308Z,17.85
2023-02-21T21:21:57.735Z,16.55
2023-02-21T21:24:00.697Z,16.02
2023-02-21T21:26:08.669Z,16.60
2023-02-21T21:28:13.373Z,19.48
2023-02-21T21:30:23.556Z,20.35
2023-02-21T21:32:26.152Z,24.08
2023-02-21T21:34:32.328Z,28.08
2023-02-21T21:36:36.108Z,29.60
2023-02-21T21:38:40.714Z,24.58
2023-02-21T21:40:47.833Z,21.63
2023-02-21T21:42:52.170Z,20.23
2023-02-21T21:44:56.389Z,37.08
2023-02-21T21:47:01.126Z,67.47
2023-02-21T21:49:06.331Z,73.75
2023-02-21T21:51:09.532Z,69.18
2023-02-21T21:53:12.022Z,73.93
2023-02-21T21:55:22.916Z,72.55
2023-02-21T21:57:28.050Z,69.73
2023-02-21T21:59:30.919Z,72.60
2023-02-21T22:01:33.368Z,68.80
2023-02-21T22:03:35.781Z,60.10
2023-02-21T22:05:38.219Z,50.03
2023-02-21T22:07:42.539Z,70.83
2023-02-21T22:09:45.039Z,123.03
2023-02-21T22:11:49.133Z,152.55
2023-02-21T22:13:51.556Z,117.38
2023-02-21T22:15:55.634Z,111.13
2023-02-21T22:18:02.086Z,78.87
2023-02-21T22:20:17.365Z,57.35
2023-02-21T22:22:19.810Z,73.78
2023-02-21T22:24:23.556Z,82.22
2023-02-21T22:26:28.010Z,105.97
2023-02-21T22:28:30.416Z,74.53
2023-02-21T22:30:32.833Z,50.03
2023-02-21T22:32:35.975Z,64.82
2023-02-21T22:34:38.394Z,93.10
2023-02-21T22:36:47.066Z,146.88
2023-02-21T22:38:49.884Z,116.50
2023-02-21T22:40:52.298Z,97.70
2023-02-21T22:42:56.821Z,89.38
2023-02-21T22:44:59.270Z,84.93
2023-02-21T22:47:01.721Z,71.63
2023-02-21T22:49:04.151Z,113.50
2023-02-21T22:51:08.786Z,110.53
2023-02-21T22:53:13.906Z,81.50
2023-02-21T22:55:16.408Z,84.60
2023-02-21T22:57:19.230Z,66.72
2023-02-21T22:59:25.983Z,50.40
2023-02-21T23:01:28.713Z,38.45
2023-02-21T23:03:32.095Z,34.83
2023-02-21T23:05:34.441Z,26.17
2023-02-21T23:07:36.776Z,38.92
2023-02-21T23:09:39.209Z,69.00
2023-02-21T23:11:46.174Z,55.28
2023-02-21T23:13:48.593Z,72.80
2023-02-21T23:15:54.114Z,65.50
2023-02-21T23:17:57.839Z,99.82
2023-02-21T23:20:00.248Z,112.50
2023-02-21T23:22:03.896Z,129.18
2023-02-21T23:24:06.484Z,147.15
2023-02-21T23:26:08.872Z,150.27
2023-02-21T23:28:14.047Z,160.00
2023-02-21T23:30:17.265Z,152.63
2023-02-21T23:32:22.570Z,129.48
2023-02-21T23:34:40.201Z,129.10
2023-02-21T23:36:44.449Z,126.30
2023-02-21T23:38:46.830Z,126.25
2023-02-21T23:40:56.301Z,120.20
2023-02-21T23:42:58.812Z,107.10
2023-02-21T23:45:01.172Z,94.47
2023-02-21T23:47:06.144Z,99.38
2023-02-21T23:49:10.914Z,107.22
2023-02-21T23:51:14.118Z,54.83
2023-02-21T23:53:20.127Z,64.82
2023-02-21T23:55:25.132Z,49.28
2023-02-21T23:57:27.554Z,54.83
2023-02-21T23:59:30.082Z,42.30
